Ossining, NY

3:43 AM EST on February 08, 2016 (GMT -0500)
APRSWXNET | | Change Station
CLOSE
Current Station
Personal Weather Station
Location: Maryknoll, NY
Elevation: 484 ft
Nearby Weather Stations
Active Advisory: Winter Weather Advisory

Elev 484 ft 41.18 °N, 73.81 °W | Updated 23 minutes ago

Clear
Clear
34 °F
Feels Like 30 °F
N
4
Wind Variable Wind from ENE
Gusts 15.0 mph

Today
High -- | Low -- °F
--% Chance of Precip.
Yesterday
High -- | Low -- °F
Precip. -- in
Pressure 29.78 in
Visibility 10.0 miles
Clouds Clear
Windchill 30 °F
Dew Point 26 °F
Humidity 71%
Rainfall in
Snow Depth Not available.
6:59 AM 5:20 PM
Waning Crescent, 0% visible
METAR KHPN 080756Z 04011KT 10SM CLR 02/M03 A2977 RMK AO2 PRESFR SLP085 T00171033
Pressure 29.78 in
Visibility 10.0 miles
Clouds Clear
Windchill 30 °F
Dew Point 26 °F
Humidity 71%
Rainfall in
Snow Depth Not available.
6:59 AM 5:20 PM
Waning Crescent, 0% visible
METAR KHPN 080756Z 04011KT 10SM CLR 02/M03 A2977 RMK AO2 PRESFR SLP085 T00171033

10-Day Weather Forecast

Almanac

Astronomy

Feb. 08, 2016 Rise Set
Actual Time
Civil Twilight
Nautical Twilight
Astronomical Twilight
Moon
Length of Visible Light
Length of Day
Tomorrow will be .
, % of the Moon is Illuminated

Today's Extremes

State Highs State Lows

Community

WunderPhotos

Upload Photos

1,891,412 photos uploaded!

WunderBlog® & News

Nearby

Air Quality

  Air Quality AQ Index Pollutant
Not available.

Snow Depth

Station Depth Elevation

Earthquake Activity

City Distance Mag. Time & Date
Minimum magnitude displayed is 2.5.

Coastal Water Temperatures

Place Temperature

Stations

Nearby Weather Stations

Station Location Temp. Windchill Dew Point Humidity Wind Precip. Elev Updated Type
                   

Watches & Warnings

Winter Weather Advisory
Issued: 10:25 PM EST Feb. 7, 2016 – National Weather Service

... Winter Weather Advisory remains in effect from 3 am to 6 PM
EST Monday...

* locations... Fairfield and New Haven counties.

* Hazard types... accumulating snow and wind.

* Accumulations... snow accumulation of 2 to 5 inches.

* Winds... northeast 5 to 15 mph with gusts up to 25 mph.

* Temperatures... around 30.

* Visibilities... one quarter to one half mile at times.

* Timing... snow develops by Monday morning and will continue
through Monday afternoon.

* Impacts... hazardous travel conditions due to reduced
visibilities and snow covered roads.

Precautionary/preparedness actions...

A Winter Weather Advisory means that periods of snow... sleet... or
freezing rain will cause travel difficulties. Be prepared for
slippery roads and limited visibilities... and use caution while
driving.



Maloit